Time;durP1;ratioP1;P1;durP2;ratioP2;P2;SDS_P1;SDS_P2;PMS_P1;PMS_P2;Temp;Humidity;BMP_temperature;BMP_pressure;BME280_temperature;BME280_humidity;BME280_pressure;Samples;Min_cycle;Max_cycle;Signal;HPM_P1;HPM_P2
2023/07/16 00:02:06;;;;;;;0.08;0.08;;;;;;;15.55;79.22;99270.00;7348482;19;20949;-60
2023/07/16 00:04:32;;;;;;;0.10;0.10;;;;;;;15.54;78.80;99252.53;7349216;19;20014;-60
2023/07/16 00:06:59;;;;;;;0.10;0.10;;;;;;;15.38;78.74;99246.59;7346357;19;20880;-59
2023/07/16 00:09:25;;;;;;;0.10;0.10;;;;;;;15.51;78.77;99268.50;7348007;19;20043;-60
2023/07/16 00:11:50;;;;;;;0.03;0.03;;;;;;;15.48;79.17;99289.78;7349125;19;20026;-59
2023/07/16 00:14:15;;;;;;;0.10;0.10;;;;;;;15.49;78.98;99299.34;7344024;19;20014;-59
2023/07/16 00:16:41;;;;;;;0.10;0.10;;;;;;;15.48;79.00;99301.13;7347901;19;20010;-59
2023/07/16 00:19:06;;;;;;;0.10;0.10;;;;;;;15.47;79.07;99307.34;7348276;19;20002;-62
2023/07/16 00:21:32;;;;;;;0.10;0.10;;;;;;;15.39;79.17;99285.94;7348012;19;20048;-60
2023/07/16 00:23:57;;;;;;;0.10;0.10;;;;;;;15.45;79.32;99306.59;7347310;19;20030;-60
2023/07/16 00:26:23;;;;;;;0.05;0.05;;;;;;;15.45;78.94;99306.59;7348818;19;20014;-60
2023/07/16 00:28:48;;;;;;;0.10;0.10;;;;;;;15.45;79.43;99313.63;7345526;19;20014;-60
2023/07/16 00:31:14;;;;;;;0.10;0.10;;;;;;;15.46;79.18;99323.19;7346421;19;20038;-60
2023/07/16 00:33:39;;;;;;;0.10;0.10;;;;;;;15.46;79.21;99313.56;7340792;19;20014;-60
2023/07/16 00:36:04;;;;;;;0.10;0.10;;;;;;;15.47;79.18;99322.28;7345120;19;20019;-60
2023/07/16 00:38:30;;;;;;;0.10;0.10;;;;;;;15.34;78.77;99302.97;7340853;19;20454;-60
2023/07/16 00:40:56;;;;;;;0.10;0.10;;;;;;;15.45;79.14;99325.00;7351659;19;20014;-60
2023/07/16 00:43:21;;;;;;;0.10;0.10;;;;;;;15.47;78.85;99324.91;7345123;19;20007;-60
2023/07/16 00:45:47;;;;;;;0.10;0.10;;;;;;;15.48;79.23;99331.84;7349034;19;20011;-60
2023/07/16 00:48:12;;;;;;;0.10;0.10;;;;;;;15.10;78.49;99274.66;7351573;19;20042;-60
2023/07/16 00:50:41;;;;;;;0.10;0.10;;;;;;;15.49;78.74;99328.28;7350049;19;20010;-60
2023/07/16 00:53:08;;;;;;;0.10;0.10;;;;;;;15.48;78.91;99327.44;7354373;19;20014;-60
2023/07/16 00:55:35;;;;;;;0.00;0.00;;;;;;;15.41;78.37;99325.28;7350642;19;20298;-60
2023/07/16 00:58:05;;;;;;;0.10;0.10;;;;;;;15.49;78.50;99344.06;7352201;19;20018;-60
2023/07/16 01:00:38;;;;;;;0.10;0.10;;;;;;;15.48;78.43;99352.91;7351511;19;20006;-60
2023/07/16 01:03:05;;;;;;;0.10;0.10;;;;;;;15.34;78.12;99334.53;7349467;19;20017;-60
2023/07/16 01:05:41;;;;;;;0.10;0.10;;;;;;;15.50;78.43;99361.53;7351558;19;20022;-59
2023/07/16 01:08:10;;;;;;;0.00;0.00;;;;;;;15.51;78.41;99365.84;7354927;19;20018;-59
2023/07/16 01:10:38;;;;;;;0.10;0.10;;;;;;;15.44;78.23;99356.66;7348165;19;20014;-60
2023/07/16 01:13:04;;;;;;;0.10;0.10;;;;;;;15.50;78.05;99372.06;7345218;19;20031;-60
2023/07/16 01:15:29;;;;;;;0.10;0.10;;;;;;;15.51;77.89;99368.47;7346478;19;20018;-60
2023/07/16 01:17:55;;;;;;;0.10;0.10;;;;;;;15.50;78.25;99378.16;7350727;19;20019;-59
2023/07/16 01:20:20;;;;;;;0.10;0.10;;;;;;;15.48;77.65;99369.53;7353116;19;20572;-60
2023/07/16 01:23:17;;;;;;;0.10;0.10;;;;;;;15.54;77.72;99381.44;7353849;19;20010;-60
2023/07/16 01:26:08;;;;;;;0.00;0.00;;;;;;;15.53;77.61;99371.88;7250644;19;2004292;-59
2023/07/16 01:29:04;;;;;;;0.00;0.00;;;;;;;15.50;77.41;99379.94;7347481;19;20029;-60
2023/07/16 01:31:31;;;;;;;0.10;0.10;;;;;;;15.37;77.39;99371.16;7251034;19;2004315;-59
2023/07/16 01:33:58;;;;;;;0.00;0.00;;;;;;;15.41;76.98;99385.78;7350819;19;20011;-59
2023/07/16 01:36:24;;;;;;;0.00;0.00;;;;;;;15.39;76.78;99390.31;7351367;19;20022;-60
2023/07/16 01:38:50;;;;;;;0.10;0.10;;;;;;;15.35;76.92;99383.56;7349595;19;20006;-59
2023/07/16 01:41:16;;;;;;;0.10;0.10;;;;;;;15.31;76.56;99388.19;7351921;19;20660;-60
2023/07/16 01:43:41;;;;;;;0.10;0.10;;;;;;;15.26;76.97;99385.84;7350686;19;20010;-60
2023/07/16 01:46:07;;;;;;;0.10;0.10;;;;;;;15.24;76.54;99406.13;7353716;19;20027;-59
2023/07/16 01:48:35;;;;;;;0.00;0.00;;;;;;;15.22;76.61;99418.53;7348887;19;20031;-60
2023/07/16 01:51:01;;;;;;;0.10;0.10;;;;;;;15.19;76.93;99418.72;7351260;19;20011;-60
2023/07/16 01:53:26;;;;;;;0.10;0.10;;;;;;;15.17;76.98;99411.88;7350059;19;20877;-59
2023/07/16 01:55:52;;;;;;;0.10;0.10;;;;;;;15.11;76.61;99418.38;7351171;19;20010;-60
2023/07/16 01:58:17;;;;;;;0.10;0.10;;;;;;;15.12;77.22;99412.16;7350994;19;20077;-60
2023/07/16 02:00:43;;;;;;;0.10;0.10;;;;;;;15.10;76.96;99421.91;7354422;19;20608;-59
2023/07/16 02:03:08;;;;;;;0.10;0.10;;;;;;;15.09;76.89;99425.47;7352217;19;20041;-60
2023/07/16 02:05:34;;;;;;;0.05;0.05;;;;;;;15.07;77.15;99422.13;7356256;19;20046;-59
2023/07/16 02:08:00;;;;;;;0.00;0.00;;;;;;;14.98;77.23;99418.25;7353584;19;20002;-59
2023/07/16 02:10:25;;;;;;;0.10;0.10;;;;;;;14.91;77.11;99392.44;7355633;19;20479;-60
2023/07/16 02:12:51;;;;;;;0.00;0.00;;;;;;;15.03;77.10;99431.13;7346041;19;20510;-60
2023/07/16 02:15:17;;;;;;;0.10;0.10;;;;;;;14.97;77.33;99426.25;7354021;19;20023;-60
2023/07/16 02:17:43;;;;;;;0.10;0.10;;;;;;;15.04;77.37;99436.28;7353131;19;20017;-59
2023/07/16 02:20:10;;;;;;;0.10;0.10;;;;;;;15.03;77.79;99415.34;7354483;19;20110;-59
2023/07/16 02:22:36;;;;;;;0.03;0.03;;;;;;;15.09;77.44;99436.00;7356806;19;20007;-60
2023/07/16 02:25:02;;;;;;;0.10;0.10;;;;;;;15.09;77.73;99433.38;7345147;19;20768;-60
2023/07/16 02:27:27;;;;;;;0.10;0.10;;;;;;;15.11;77.47;99439.41;7355363;19;20500;-60
2023/07/16 02:29:53;;;;;;;0.10;0.10;;;;;;;15.00;77.64;99423.41;7351438;19;20010;-60
2023/07/16 02:32:18;;;;;;;0.10;0.10;;;;;;;15.09;77.19;99441.25;7354360;19;20018;-60
2023/07/16 02:34:44;;;;;;;0.10;0.10;;;;;;;15.14;77.35;99444.44;7353188;19;20011;-60
2023/07/16 02:37:10;;;;;;;0.10;0.10;;;;;;;15.15;77.64;99442.66;7333982;19;20014;-60
2023/07/16 02:39:35;;;;;;;0.10;0.10;;;;;;;15.14;77.30;99439.19;7352344;19;20074;-59
2023/07/16 02:42:01;;;;;;;0.10;0.10;;;;;;;15.15;76.97;99456.66;7353801;19;20025;-59
2023/07/16 02:44:26;;;;;;;0.10;0.10;;;;;;;15.15;77.27;99458.44;7354378;19;20006;-59
2023/07/16 02:46:52;;;;;;;0.10;0.10;;;;;;;15.07;76.82;99453.66;7353651;19;20017;-59
2023/07/16 02:49:17;;;;;;;0.10;0.10;;;;;;;15.13;77.25;99463.78;7355774;19;20011;-60
2023/07/16 02:51:42;;;;;;;0.10;0.10;;;;;;;15.14;77.31;99464.63;7351241;19;20006;-60
2023/07/16 02:54:08;;;;;;;0.10;0.10;;;;;;;15.00;76.91;99453.19;7353703;19;20550;-60
2023/07/16 02:56:34;;;;;;;0.10;0.10;;;;;;;15.14;77.07;99480.41;7351570;19;20002;-59
2023/07/16 02:58:59;;;;;;;0.00;0.00;;;;;;;15.15;77.04;99475.06;7353722;19;20545;-59
2023/07/16 03:01:25;;;;;;;0.00;0.00;;;;;;;15.14;76.48;99481.25;7350314;19;20441;-60
2023/07/16 03:03:50;;;;;;;0.10;0.10;;;;;;;15.14;76.59;99481.25;7351955;19;20006;-59
2023/07/16 03:06:16;;;;;;;0.10;0.10;;;;;;;15.12;76.57;99488.41;7355804;19;20018;-60
2023/07/16 03:08:41;;;;;;;0.10;0.10;;;;;;;15.08;76.29;99486.91;7353995;19;20029;-59
2023/07/16 03:11:07;;;;;;;0.10;0.10;;;;;;;15.06;76.61;99499.31;7356096;19;20007;-60
2023/07/16 03:13:32;;;;;;;0.10;0.10;;;;;;;15.00;76.15;99483.88;7353028;19;20124;-59
2023/07/16 03:15:58;;;;;;;0.10;0.10;;;;;;;15.00;76.00;99494.38;7356090;19;20342;-60
2023/07/16 03:18:30;;;;;;;0.10;0.10;;;;;;;14.96;76.42;99491.13;7355928;19;20086;-59
2023/07/16 03:20:59;;;;;;;0.10;0.10;;;;;;;14.91;76.01;99490.56;7353937;19;20006;-59
2023/07/16 03:23:24;;;;;;;0.10;0.10;;;;;;;14.90;76.76;99504.63;7353564;19;20029;-60
2023/07/16 03:25:51;;;;;;;0.10;0.10;;;;;;;14.87;76.21;99510.06;7354578;19;20884;-59
2023/07/16 03:28:16;;;;;;;0.10;0.10;;;;;;;14.84;76.33;99509.38;7350064;19;20041;-60
2023/07/16 03:30:48;;;;;;;0.08;0.08;;;;;;;14.83;76.44;99529.56;7335092;19;20007;-60
2023/07/16 03:33:13;;;;;;;0.10;0.10;;;;;;;14.79;76.82;99523.63;7349498;19;20027;-59
2023/07/16 03:35:39;;;;;;;0.10;0.10;;;;;;;14.77;76.58;99529.94;7353989;19;20014;-60
2023/07/16 03:38:04;;;;;;;0.10;0.10;;;;;;;14.76;76.80;99538.78;7350986;19;20030;-60
2023/07/16 03:40:30;;;;;;;0.00;0.00;;;;;;;14.74;77.04;99530.94;7354375;19;20021;-60
2023/07/16 03:42:56;;;;;;;0.10;0.10;;;;;;;14.76;77.03;99541.41;7353705;19;20010;-60
2023/07/16 03:45:21;;;;;;;0.10;0.10;;;;;;;14.34;77.02;99471.13;7355615;19;20015;-60
2023/07/16 03:47:46;;;;;;;0.10;0.10;;;;;;;14.74;77.23;99541.47;7354023;19;20093;-60
2023/07/16 03:50:12;;;;;;;0.10;0.10;;;;;;;14.75;76.98;99552.81;7353585;19;20081;-60
2023/07/16 03:52:37;;;;;;;0.10;0.10;;;;;;;14.75;77.01;99545.81;7353677;19;20007;-60
2023/07/16 03:55:03;;;;;;;0.10;0.10;;;;;;;14.75;76.98;99553.69;7353616;19;20031;-59
2023/07/16 03:57:29;;;;;;;0.00;0.00;;;;;;;14.76;77.25;99562.41;7350770;19;20534;-59
2023/07/16 03:59:54;;;;;;;0.10;0.10;;;;;;;14.61;76.91;99535.25;7353215;19;20042;-60
2023/07/16 04:02:20;;;;;;;0.10;0.10;;;;;;;14.77;76.86;99564.94;7351040;19;20014;-59
2023/07/16 04:04:46;;;;;;;0.10;0.10;;;;;;;14.79;77.23;99568.31;7351408;19;20386;-60
2023/07/16 04:07:12;;;;;;;0.10;0.10;;;;;;;14.77;77.15;99569.34;7350816;19;20489;-59
2023/07/16 04:09:38;;;;;;;0.10;0.10;;;;;;;14.77;76.79;99577.25;7351419;19;20014;-59
2023/07/16 04:12:05;;;;;;;0.10;0.10;;;;;;;14.81;77.27;99591.91;7350876;19;20015;-60
2023/07/16 04:14:30;;;;;;;0.10;0.10;;;;;;;14.78;76.52;99590.28;7348187;19;20042;-60
2023/07/16 04:16:56;;;;;;;0.10;0.10;;;;;;;14.77;77.08;99593.84;7352511;19;20015;-59
2023/07/16 04:19:21;;;;;;;0.10;0.10;;;;;;;14.76;76.54;99597.44;7352181;19;20010;-60
2023/07/16 04:21:47;;;;;;;0.00;0.00;;;;;;;14.75;76.67;99603.63;7350726;19;20014;-59
2023/07/16 04:24:12;;;;;;;0.10;0.10;;;;;;;14.74;76.92;99606.31;7350702;19;20021;-60
2023/07/16 04:26:37;;;;;;;0.00;0.00;;;;;;;14.74;77.13;99607.16;7352525;19;20698;-59
2023/07/16 04:29:03;;;;;;;0.10;0.10;;;;;;;14.75;77.20;99616.75;7352253;19;20715;-60
2023/07/16 04:31:28;;;;;;;0.10;0.10;;;;;;;14.75;77.01;99616.75;7351227;19;20010;-59
2023/07/16 04:33:54;;;;;;;0.10;0.10;;;;;;;14.77;76.98;99617.50;7348539;19;20028;-60
2023/07/16 04:36:19;;;;;;;0.10;0.10;;;;;;;14.77;77.18;99624.56;7352806;19;20030;-60
2023/07/16 04:38:44;;;;;;;0.10;0.10;;;;;;;14.78;77.53;99620.97;7346364;19;20106;-59
2023/07/16 04:41:10;;;;;;;0.10;0.10;;;;;;;14.83;77.30;99625.97;7353821;19;20014;-60
2023/07/16 04:43:35;;;;;;;0.00;0.00;;;;;;;14.84;77.07;99625.88;7350015;19;20838;-59
2023/07/16 04:46:01;;;;;;;0.10;0.10;;;;;;;14.85;77.19;99626.72;7353721;19;20466;-59
2023/07/16 04:48:26;;;;;;;0.10;0.10;;;;;;;14.88;77.23;99629.19;7345745;19;20086;-60
2023/07/16 04:50:54;;;;;;;0.10;0.10;;;;;;;14.90;77.49;99645.72;7352017;19;20094;-60
2023/07/16 04:53:22;;;;;;;0.10;0.10;;;;;;;14.92;77.43;99649.13;7341803;19;20637;-59
2023/07/16 04:55:49;;;;;;;0.00;0.00;;;;;;;14.83;76.98;99631.22;7350769;19;20016;-59
2023/07/16 04:58:14;;;;;;;0.10;0.10;;;;;;;14.97;76.94;99670.72;7345096;19;20017;-60
2023/07/16 05:00:40;;;;;;;0.10;0.10;;;;;;;14.98;77.02;99664.53;7351987;19;20015;-60
2023/07/16 05:03:05;;;;;;;0.10;0.10;;;;;;;15.01;77.28;99670.47;7349733;19;20466;-60
2023/07/16 05:05:31;;;;;;;0.10;0.10;;;;;;;15.06;77.24;99670.22;7350299;19;20027;-60
2023/07/16 05:07:56;;;;;;;0.10;0.10;;;;;;;15.05;77.37;99655.34;7349856;19;20029;-59
2023/07/16 05:10:22;;;;;;;0.10;0.10;;;;;;;15.13;77.24;99687.31;7350428;19;20010;-60
2023/07/16 05:12:47;;;;;;;0.10;0.10;;;;;;;15.15;76.55;99695.94;7345757;19;20471;-59
2023/07/16 05:15:13;;;;;;;0.10;0.10;;;;;;;15.17;76.37;99691.47;7348480;19;20402;-60
2023/07/16 05:17:38;;;;;;;0.10;0.10;;;;;;;15.18;76.00;99698.41;7348635;19;20026;-59
2023/07/16 05:20:05;;;;;;;0.10;0.10;;;;;;;15.17;75.86;99704.59;7351413;19;20814;-59
2023/07/16 05:22:30;;;;;;;0.10;0.10;;;;;;;15.17;76.16;99701.97;7350735;19;20107;-60
2023/07/16 05:24:55;;;;;;;0.10;0.10;;;;;;;15.18;76.19;99715.97;7350046;19;20098;-59
2023/07/16 05:27:21;;;;;;;0.10;0.10;;;;;;;15.13;76.57;99699.63;7357017;19;20278;-60
2023/07/16 05:29:47;;;;;;;0.10;0.10;;;;;;;15.23;76.64;99717.41;7358697;19;20018;-60
2023/07/16 05:32:13;;;;;;;0.10;0.10;;;;;;;15.22;76.08;99722.75;7354551;19;20045;-59
2023/07/16 05:34:38;;;;;;;0.10;0.10;;;;;;;15.26;76.34;99726.91;7357104;19;20398;-60
2023/07/16 05:37:04;;;;;;;0.10;0.10;;;;;;;15.29;76.41;99727.56;7354929;19;20014;-59
2023/07/16 05:39:30;;;;;;;0.10;0.10;;;;;;;15.32;76.34;99735.28;7357970;19;20014;-60
2023/07/16 05:41:55;;;;;;;0.10;0.10;;;;;;;15.32;76.06;99743.19;7357923;19;20620;-60
2023/07/16 05:44:20;;;;;;;0.20;0.20;;;;;;;15.38;76.06;99739.34;7354246;19;20027;-59
2023/07/16 05:46:46;;;;;;;0.10;0.10;;;;;;;15.39;76.44;99737.56;7356985;19;20014;-59
2023/07/16 05:49:11;;;;;;;0.10;0.10;;;;;;;15.25;76.22;99709.41;7355369;19;20022;-60
2023/07/16 05:51:37;;;;;;;0.10;0.10;;;;;;;15.48;76.27;99742.28;7355548;19;20014;-59
2023/07/16 05:54:02;;;;;;;0.10;0.10;;;;;;;15.40;76.22;99723.47;7355491;19;20010;-60
2023/07/16 05:56:28;;;;;;;0.10;0.10;;;;;;;15.55;76.12;99755.00;7356705;19;20073;-59
2023/07/16 05:58:53;;;;;;;0.10;0.10;;;;;;;15.56;75.59;99756.72;7349556;19;20013;-59
2023/07/16 06:01:19;;;;;;;0.10;0.10;;;;;;;15.58;75.52;99759.25;7354598;19;20038;-59
2023/07/16 06:03:44;;;;;;;0.10;0.10;;;;;;;15.57;75.58;99760.19;7355070;19;20484;-59
2023/07/16 06:06:10;;;;;;;0.10;0.10;;;;;;;15.57;75.97;99771.56;7354435;19;20402;-60
2023/07/16 06:08:35;;;;;;;0.10;0.10;;;;;;;15.56;75.39;99766.34;7354730;19;20022;-60
2023/07/16 06:11:01;;;;;;;0.10;0.10;;;;;;;15.58;75.92;99764.50;7353365;19;20018;-60
2023/07/16 06:13:26;;;;;;;0.10;0.10;;;;;;;15.63;76.01;99772.13;7354447;19;20010;-59
2023/07/16 06:15:52;;;;;;;0.10;0.10;;;;;;;15.68;75.77;99780.63;7354622;19;20006;-59
2023/07/16 06:18:17;;;;;;;0.10;0.10;;;;;;;15.71;75.44;99783.94;7351720;19;20569;-60
2023/07/16 06:20:44;;;;;;;0.10;0.10;;;;;;;15.77;75.77;99780.94;7352400;19;20018;-59
2023/07/16 06:23:11;;;;;;;0.10;0.10;;;;;;;15.77;75.66;99786.22;7354133;19;20049;-59
2023/07/16 06:25:36;;;;;;;0.10;0.10;;;;;;;15.86;75.60;99790.06;7355495;19;20018;-58
2023/07/16 06:28:02;;;;;;;0.10;0.10;;;;;;;15.93;75.28;99780.03;7354370;19;20037;-59
2023/07/16 06:30:27;;;;;;;0.10;0.10;;;;;;;15.98;75.86;99799.06;7354115;19;20010;-59
2023/07/16 06:32:53;;;;;;;0.10;0.10;;;;;;;16.00;75.13;99786.63;7353851;19;20015;-59
2023/07/16 06:35:18;;;;;;;0.10;0.10;;;;;;;16.06;75.74;99786.25;7347255;19;20027;-59
2023/07/16 06:37:44;;;;;;;0.00;0.00;;;;;;;16.07;74.83;99793.25;7352663;19;20029;-59
2023/07/16 06:40:09;;;;;;;0.10;0.10;;;;;;;15.97;74.23;99781.56;7355735;19;20939;-58
2023/07/16 06:42:35;;;;;;;0.10;0.10;;;;;;;15.93;74.25;99788.78;7346437;19;20021;-59
2023/07/16 06:45:00;;;;;;;0.10;0.10;;;;;;;16.06;73.59;99802.91;7356253;19;20011;-59
2023/07/16 06:47:25;;;;;;;0.10;0.10;;;;;;;16.02;73.51;99805.84;7352540;19;20017;-59
2023/07/16 06:49:51;;;;;;;0.10;0.10;;;;;;;16.01;73.73;99817.28;7354166;19;20058;-59
2023/07/16 06:52:24;;;;;;;0.10;0.10;;;;;;;15.99;74.29;99813.91;7350944;19;20011;-59
2023/07/16 06:54:50;;;;;;;0.10;0.10;;;;;;;16.01;74.23;99830.44;7345970;19;20450;-59
2023/07/16 06:57:15;;;;;;;0.10;0.10;;;;;;;16.02;74.04;99817.22;7355543;19;20011;-60
2023/07/16 06:59:41;;;;;;;0.10;0.10;;;;;;;16.06;74.03;99834.50;7351435;19;20014;-59
2023/07/16 07:02:06;;;;;;;0.10;0.10;;;;;;;15.96;74.09;99803.53;7355295;19;20022;-59
2023/07/16 07:04:32;;;;;;;0.10;0.10;;;;;;;16.15;74.10;99827.84;7350272;19;20015;-59
2023/07/16 07:06:57;;;;;;;0.10;0.10;;;;;;;16.22;74.02;99845.00;7353725;19;20014;-59
2023/07/16 07:09:22;;;;;;;0.10;0.10;;;;;;;16.28;74.27;99844.63;7351595;19;20006;-59
2023/07/16 07:11:48;;;;;;;0.10;0.10;;;;;;;16.37;73.94;99845.00;7355209;19;20018;-60
2023/07/16 07:14:13;;;;;;;0.10;0.10;;;;;;;16.09;74.03;99791.34;7347103;19;20022;-58
2023/07/16 07:16:39;;;;;;;0.10;0.10;;;;;;;16.47;73.60;99875.13;7347476;19;20086;-59
2023/07/16 07:19:05;;;;;;;0.10;0.10;;;;;;;16.57;74.04;99856.06;7348533;19;20580;-59
2023/07/16 07:21:31;;;;;;;0.10;0.10;;;;;;;16.60;73.48;99860.28;7353877;19;20014;-59
2023/07/16 07:23:56;;;;;;;0.10;0.10;;;;;;;16.68;72.93;99873.84;7348076;19;20038;-58
2023/07/16 07:26:21;;;;;;;0.10;0.10;;;;;;;16.75;73.28;99880.47;7351682;19;20345;-59
2023/07/16 07:28:47;;;;;;;0.10;0.10;;;;;;;16.79;72.82;99881.97;7351893;19;20083;-59
2023/07/16 07:31:12;;;;;;;0.10;0.10;;;;;;;16.83;72.74;99886.13;7354161;19;20025;-59
2023/07/16 07:33:38;;;;;;;0.10;0.10;;;;;;;16.90;73.27;99883.09;7355928;19;20026;-59
2023/07/16 07:36:03;;;;;;;0.10;0.10;;;;;;;16.62;72.56;99839.94;7351234;19;20018;-59
2023/07/16 07:38:29;;;;;;;0.10;0.10;;;;;;;16.97;72.29;99893.16;7355489;19;20093;-59
2023/07/16 07:40:54;;;;;;;0.10;0.10;;;;;;;16.73;72.79;99836.69;7351149;19;20014;-58
2023/07/16 07:43:20;;;;;;;0.10;0.10;;;;;;;17.05;72.49;99887.44;7355998;19;20014;-60
2023/07/16 07:45:45;;;;;;;0.10;0.10;;;;;;;17.08;72.32;99898.63;7348674;19;20888;-58
2023/07/16 07:48:10;;;;;;;0.10;0.10;;;;;;;17.12;72.19;99899.28;7351369;19;20006;-59
2023/07/16 07:50:36;;;;;;;0.10;0.10;;;;;;;17.13;71.94;99911.50;7354005;19;20011;-59
2023/07/16 07:53:01;;;;;;;0.00;0.00;;;;;;;17.18;71.98;99909.44;7351815;19;20033;-59
2023/07/16 07:55:27;;;;;;;0.10;0.10;;;;;;;17.21;72.35;99909.25;7349949;19;20003;-59
2023/07/16 07:57:53;;;;;;;0.10;0.10;;;;;;;17.25;72.05;99909.91;7351372;19;20006;-59
2023/07/16 08:00:18;;;;;;;0.08;0.08;;;;;;;17.25;71.45;99913.41;7350960;19;20006;-59
2023/07/16 08:02:44;;;;;;;0.10;0.10;;;;;;;17.31;71.23;99920.94;7347450;19;20007;-59
2023/07/16 08:05:09;;;;;;;0.10;0.10;;;;;;;17.35;71.43;99927.72;7352132;19;20014;-59
2023/07/16 08:07:34;;;;;;;0.10;0.10;;;;;;;17.38;71.22;99930.13;7349088;19;20017;-59
2023/07/16 08:10:00;;;;;;;0.10;0.10;;;;;;;17.42;71.19;99932.59;7351076;19;20022;-59
2023/07/16 08:12:25;;;;;;;0.10;0.10;;;;;;;17.44;71.40;99938.66;7350816;19;20747;-59
2023/07/16 08:14:51;;;;;;;0.15;0.15;;;;;;;17.44;71.55;99930.72;7345980;19;20098;-58
2023/07/16 08:17:16;;;;;;;0.10;0.10;;;;;;;17.46;71.38;99942.03;7349915;19;20035;-59
2023/07/16 08:19:42;;;;;;;0.10;0.10;;;;;;;17.48;70.48;99940.13;7344883;19;20025;-59
2023/07/16 08:22:07;;;;;;;0.10;0.10;;;;;;;17.49;70.89;99939.19;7350405;19;20026;-59
2023/07/16 08:24:32;;;;;;;0.10;0.10;;;;;;;17.49;70.82;99939.19;7348783;19;20023;-59
2023/07/16 08:26:58;;;;;;;0.10;0.10;;;;;;;17.51;70.80;99937.31;7349065;19;20010;-60
2023/07/16 08:29:23;;;;;;;0.10;0.10;;;;;;;17.54;71.09;99948.53;7350372;19;20006;-60
2023/07/16 08:31:48;;;;;;;0.20;0.20;;;;;;;17.59;70.74;99940.31;7351159;19;20672;-59
2023/07/16 08:34:14;;;;;;;0.10;0.10;;;;;;;17.64;71.01;99940.88;7346059;19;20056;-58
2023/07/16 08:36:39;;;;;;;0.10;0.10;;;;;;;17.72;70.53;99940.34;7350439;19;20011;-59
2023/07/16 08:39:05;;;;;;;0.10;0.10;;;;;;;17.82;70.28;99955.53;7350163;19;20010;-59
2023/07/16 08:41:31;;;;;;;0.10;0.10;;;;;;;17.80;70.76;99944.25;7350283;19;20053;-59
2023/07/16 08:43:57;;;;;;;0.10;0.10;;;;;;;17.82;70.75;99930.94;7349325;19;20848;-59
2023/07/16 08:46:22;;;;;;;0.10;0.10;;;;;;;18.10;70.37;99965.19;7346696;19;20185;-59
2023/07/16 08:48:48;;;;;;;0.10;0.10;;;;;;;18.21;69.51;99960.97;7350301;19;20021;-59
2023/07/16 08:51:16;;;;;;;0.10;0.10;;;;;;;18.30;68.91;99970.94;7348929;19;20018;-59
2023/07/16 08:53:41;;;;;;;0.10;0.10;;;;;;;18.36;68.66;99978.47;7345305;19;20350;-59
2023/07/16 08:56:07;;;;;;;0.10;0.10;;;;;;;18.39;68.29;99973.78;7346329;19;20011;-60
2023/07/16 08:58:32;;;;;;;0.10;0.10;;;;;;;18.41;68.38;99977.19;7347212;19;20017;-59
2023/07/16 09:01:00;;;;;;;0.10;0.10;;;;;;;18.45;68.78;99983.16;7351292;19;20017;-59
2023/07/16 09:03:26;;;;;;;0.20;0.20;;;;;;;18.45;68.85;99983.16;7354910;19;20007;-59
2023/07/16 09:05:53;;;;;;;0.10;0.10;;;;;;;18.41;68.93;99976.34;7353895;19;20113;-60
2023/07/16 09:08:18;;;;;;;0.10;0.10;;;;;;;18.50;69.07;99990.72;7351759;19;20018;-59
2023/07/16 09:10:44;;;;;;;0.10;0.10;;;;;;;18.48;69.09;99992.66;7356285;19;20014;-59
2023/07/16 09:13:09;;;;;;;0.10;0.10;;;;;;;18.54;69.83;99986.94;7346875;19;20018;-59
2023/07/16 09:15:35;;;;;;;0.10;0.10;;;;;;;18.58;69.85;99999.84;7356256;19;20019;-59
2023/07/16 09:18:01;;;;;;;0.10;0.10;;;;;;;18.52;69.56;99975.63;7348863;19;20093;-60
2023/07/16 09:20:33;;;;;;;0.10;0.10;;;;;;;18.61;69.34;99988.25;7356680;19;20017;-60
2023/07/16 09:22:59;;;;;;;0.10;0.10;;;;;;;18.58;69.65;99988.44;7351494;19;20007;-59
2023/07/16 09:25:31;;;;;;;0.10;0.10;;;;;;;18.60;69.61;99992.69;7354975;19;20010;-58
2023/07/16 09:28:01;;;;;;;0.10;0.10;;;;;;;18.57;69.91;99992.03;7353139;19;20470;-59
2023/07/16 09:30:31;;;;;;;0.10;0.10;;;;;;;18.62;69.99;99992.56;7355544;19;20041;-60
2023/07/16 09:32:56;;;;;;;0.10;0.10;;;;;;;18.68;69.66;100005.41;7348916;19;20462;-59
2023/07/16 09:35:21;;;;;;;0.10;0.10;;;;;;;18.83;68.93;99991.16;7346659;19;20021;-60
2023/07/16 09:37:47;;;;;;;0.10;0.10;;;;;;;18.99;68.48;99992.75;7349504;19;20111;-59
2023/07/16 09:40:12;;;;;;;0.10;0.10;;;;;;;19.16;68.68;99995.94;7353242;19;20006;-59
2023/07/16 09:42:41;;;;;;;0.13;0.13;;;;;;;19.31;67.44;99993.13;7350791;19;20030;-59
2023/07/16 09:45:08;;;;;;;0.10;0.10;;;;;;;19.51;66.02;100004.97;7354099;19;20360;-59
2023/07/16 09:47:34;;;;;;;0.10;0.10;;;;;;;19.57;67.13;99999.28;7351353;19;20006;-59
2023/07/16 09:50:00;;;;;;;0.10;0.10;;;;;;;19.67;65.69;100009.13;7354031;19;20035;-58
2023/07/16 09:52:27;;;;;;;0.20;0.20;;;;;;;19.78;65.33;100007.50;7351768;19;20003;-59
2023/07/16 09:54:55;;;;;;;0.10;0.10;;;;;;;19.94;65.82;100013.38;7352486;19;20534;-60
2023/07/16 09:57:25;;;;;;;0.10;0.10;;;;;;;20.06;64.94;100012.47;7351449;19;20023;-59
2023/07/16 09:59:52;;;;;;;0.10;0.10;;;;;;;20.19;63.17;100012.44;7354860;19;20347;-60
2023/07/16 10:02:20;;;;;;;0.10;0.10;;;;;;;20.18;64.25;100000.16;7354125;19;20029;-59
2023/07/16 10:04:45;;;;;;;0.10;0.10;;;;;;;20.32;62.75;100018.50;7352823;19;20038;-60
2023/07/16 10:07:22;;;;;;;0.10;0.10;;;;;;;20.45;64.85;100019.31;7350882;19;20010;-60
2023/07/16 10:09:51;;;;;;;0.00;0.00;;;;;;;20.63;64.13;100005.63;7352057;19;20023;-59
2023/07/16 10:12:19;;;;;;;0.10;0.10;;;;;;;20.80;62.79;100010.53;7347529;19;20106;-59
2023/07/16 10:14:52;;;;;;;0.10;0.10;;;;;;;21.05;62.84;100000.69;7351607;19;20014;-59
2023/07/16 10:17:19;;;;;;;0.10;0.10;;;;;;;21.21;61.36;100014.47;7350118;19;20013;-60
2023/07/16 10:19:54;;;;;;;0.10;0.10;;;;;;;21.47;62.69;100013.28;7353184;19;20931;-59
2023/07/16 10:22:31;;;;;;;0.20;0.20;;;;;;;21.76;62.77;100018.09;7353357;19;20019;-60
2023/07/16 10:24:56;;;;;;;0.10;0.10;;;;;;;21.94;58.97;100015.75;7354430;19;20006;-59
2023/07/16 10:27:35;;;;;;;0.10;0.10;;;;;;;22.28;61.55;100008.56;7348450;19;20014;-59
2023/07/16 10:30:02;;;;;;;0.10;0.10;;;;;;;22.43;57.56;99999.31;7352740;19;20094;-59
2023/07/16 10:32:29;;;;;;;0.10;0.10;;;;;;;22.77;57.36;100010.66;7348812;19;20018;-59
2023/07/16 10:34:55;;;;;;;0.10;0.10;;;;;;;23.00;56.12;100015.84;7349959;19;20014;-60
2023/07/16 10:37:21;;;;;;;0.10;0.10;;;;;;;23.17;56.51;100011.75;7348598;19;20022;-59
2023/07/16 10:39:52;;;;;;;0.10;0.10;;;;;;;23.40;58.00;100013.25;7354748;19;20031;-59
2023/07/16 10:42:19;;;;;;;0.10;0.10;;;;;;;23.51;54.57;100010.47;7352072;19;20490;-59
2023/07/16 10:44:45;;;;;;;0.10;0.10;;;;;;;23.63;54.09;100013.06;7350397;19;20022;-60
2023/07/16 10:47:38;;;;;;;0.10;0.10;;;;;;;23.74;56.34;100015.66;7352597;19;20007;-59
2023/07/16 10:50:08;;;;;;;0.10;0.10;;;;;;;23.79;54.57;100018.75;7250321;19;2004175;-59
2023/07/16 10:52:35;;;;;;;0.10;0.10;;;;;;;23.89;54.62;100019.63;7351721;19;20596;-59
2023/07/16 10:55:00;;;;;;;0.10;0.10;;;;;;;24.04;54.21;100023.59;7350660;19;20026;-59
2023/07/16 10:57:27;;;;;;;0.10;0.10;;;;;;;24.14;52.64;100012.09;7354949;19;20002;-59
2023/07/16 10:59:54;;;;;;;0.10;0.10;;;;;;;24.33;50.78;100030.78;7348029;19;20039;-59
2023/07/16 11:02:22;;;;;;;0.10;0.10;;;;;;;24.36;51.40;100032.38;7350612;19;20045;-59
2023/07/16 11:04:49;;;;;;;0.10;0.10;;;;;;;24.29;50.16;100032.06;7349712;19;20011;-59
2023/07/16 11:07:15;;;;;;;0.00;0.00;;;;;;;24.17;52.20;100038.47;7351536;19;20014;-59
2023/07/16 11:09:47;;;;;;;0.10;0.10;;;;;;;24.04;50.90;100050.25;7352868;19;20019;-59
2023/07/16 11:12:15;;;;;;;0.00;0.00;;;;;;;23.82;51.52;100039.81;7348101;19;20030;-60
2023/07/16 11:14:46;;;;;;;0.10;0.10;;;;;;;23.77;53.33;100050.03;7342063;19;20011;-60
2023/07/16 11:17:12;;;;;;;0.10;0.10;;;;;;;23.59;53.39;100048.97;7351730;19;20006;-59
2023/07/16 11:19:38;;;;;;;0.10;0.10;;;;;;;23.51;52.47;100047.78;7347478;19;20041;-59
2023/07/16 11:22:06;;;;;;;0.10;0.10;;;;;;;23.50;54.88;100050.59;7347798;19;20081;-60
2023/07/16 11:24:38;;;;;;;0.00;0.00;;;;;;;23.61;55.73;100045.16;7351286;19;20006;-59
2023/07/16 11:27:04;;;;;;;0.10;0.10;;;;;;;23.66;53.80;100052.81;7351814;19;20021;-59
2023/07/16 11:29:36;;;;;;;0.05;0.05;;;;;;;23.75;54.72;100006.69;7351156;19;20014;-60